Time;durP1;ratioP1;P1;durP2;ratioP2;P2;SDS_P1;SDS_P2;PMS_P1;PMS_P2;Temp;Humidity;BMP_temperature;BMP_pressure;BME280_temperature;BME280_humidity;BME280_pressure;Samples;Min_cycle;Max_cycle;Signal;HPM_P1;HPM_P2
2021/08/15 00:01:44;;;;;;;15.52;7.05;;;;;;;;;;5094312;28;20028;-90
2021/08/15 00:04:10;;;;;;;9.00;6.15;;;;;;;;;;5095604;28;20056;-90
2021/08/15 00:06:36;;;;;;;9.77;6.15;;;;;;;;;;5094299;28;20024;-90
2021/08/15 00:09:03;;;;;;;12.45;6.05;;;;;;;;;;5094229;28;20028;-89
2021/08/15 00:11:29;;;;;;;17.10;7.05;;;;;;;;;;5093986;28;20077;-88
2021/08/15 00:13:56;;;;;;;15.27;6.85;;;;;;;;;;5093899;28;20439;-89
2021/08/15 00:16:22;;;;;;;13.88;6.80;;;;;;;;;;5095860;28;20024;-90
2021/08/15 00:18:48;;;;;;;12.38;7.30;;;;;;;;;;5093977;28;20051;-90
2021/08/15 00:21:14;;;;;;;12.90;7.25;;;;;;;;;;5093974;28;20503;-90
2021/08/15 00:23:41;;;;;;;11.80;6.90;;;;;;;;;;5094083;28;20043;-89
2021/08/15 00:26:07;;;;;;;11.32;6.40;;;;;;;;;;5093856;28;20036;-88
2021/08/15 00:28:34;;;;;;;11.95;7.05;;;;;;;;;;5093731;28;20085;-85
2021/08/15 00:31:00;;;;;;;13.05;7.13;;;;;;;;;;5093672;28;20480;-90
2021/08/15 00:33:26;;;;;;;11.77;7.30;;;;;;;;;;5095011;28;20074;-89
2021/08/15 00:35:52;;;;;;;13.40;6.82;;;;;;;;;;5093559;28;20027;-90
2021/08/15 00:38:18;;;;;;;12.88;7.20;;;;;;;;;;5093566;28;20031;-89
2021/08/15 00:40:44;;;;;;;14.40;7.35;;;;;;;;;;5093646;28;20066;-90
2021/08/15 00:43:10;;;;;;;11.00;6.45;;;;;;;;;;5093313;28;20024;-89
2021/08/15 00:45:37;;;;;;;12.27;6.93;;;;;;;;;;5094771;28;20039;-89
2021/08/15 00:48:10;;;;;;;13.00;6.72;;;;;;;;;;5093433;28;20507;-89
2021/08/15 00:50:36;;;;;;;13.43;6.70;;;;;;;;;;5093551;28;20031;-90
2021/08/15 00:53:03;;;;;;;10.70;6.60;;;;;;;;;;5092914;28;20093;-90
2021/08/15 00:55:29;;;;;;;12.70;6.35;;;;;;;;;;5093170;28;20561;-89
2021/08/15 00:57:55;;;;;;;13.98;7.32;;;;;;;;;;5093480;28;20074;-88
2021/08/15 01:00:21;;;;;;;13.07;6.90;;;;;;;;;;5094427;28;20548;-88
2021/08/15 01:02:48;;;;;;;10.43;6.55;;;;;;;;;;5093404;28;20020;-88
2021/08/15 01:05:15;;;;;;;13.07;6.82;;;;;;;;;;5094873;28;20098;-90
2021/08/15 01:07:42;;;;;;;11.43;7.18;;;;;;;;;;5093102;28;20051;-88
2021/08/15 01:10:11;;;;;;;11.82;6.80;;;;;;;;;;5094290;28;20024;-90
2021/08/15 01:12:37;;;;;;;13.80;7.55;;;;;;;;;;5094276;28;20077;-87
2021/08/15 01:15:04;;;;;;;10.60;5.63;;;;;;;;;;5092718;28;20552;-89
2021/08/15 01:17:30;;;;;;;10.02;6.45;;;;;;;;;;5092999;28;20016;-88
2021/08/15 01:19:57;;;;;;;12.05;7.10;;;;;;;;;;5093126;28;20059;-88
2021/08/15 01:22:24;;;;;;;12.95;7.28;;;;;;;;;;5092949;28;20073;-89
2021/08/15 01:24:51;;;;;;;14.68;7.15;;;;;;;;;;5094647;28;20032;-88
2021/08/15 01:27:19;;;;;;;14.07;6.25;;;;;;;;;;5094130;28;20065;-89
2021/08/15 01:29:46;;;;;;;13.05;6.85;;;;;;;;;;5093918;28;20039;-88
2021/08/15 01:32:12;;;;;;;10.65;6.03;;;;;;;;;;5092671;28;20030;-90
2021/08/15 01:34:38;;;;;;;13.13;7.38;;;;;;;;;;5092665;28;20047;-89
2021/08/15 01:37:07;;;;;;;11.32;6.63;;;;;;;;;;5093160;28;20455;-90
2021/08/15 01:39:33;;;;;;;12.02;6.65;;;;;;;;;;5092760;28;20020;-86
2021/08/15 01:41:59;;;;;;;16.13;7.70;;;;;;;;;;5094536;28;20028;-89
2021/08/15 01:44:25;;;;;;;10.57;7.35;;;;;;;;;;5092525;28;20040;-88
2021/08/15 01:46:52;;;;;;;13.23;7.05;;;;;;;;;;5093977;28;20069;-88
2021/08/15 01:49:18;;;;;;;12.07;7.30;;;;;;;;;;5092607;28;20042;-87
2021/08/15 01:51:44;;;;;;;13.45;7.25;;;;;;;;;;5092618;28;20024;-89
2021/08/15 01:54:10;;;;;;;12.45;7.22;;;;;;;;;;5092581;28;20031;-88
2021/08/15 01:56:36;;;;;;;13.85;7.78;;;;;;;;;;5092616;28;20134;-90
2021/08/15 01:59:02;;;;;;;16.27;8.23;;;;;;;;;;5092511;28;20484;-89
2021/08/15 02:01:28;;;;;;;12.23;7.70;;;;;;;;;;5092558;28;20062;-88
2021/08/15 02:03:55;;;;;;;13.75;8.02;;;;;;;;;;5093508;28;20099;-87
2021/08/15 02:06:21;;;;;;;14.57;7.97;;;;;;;;;;5096624;28;20408;-90
2021/08/15 02:08:48;;;;;;;11.20;7.57;;;;;;;;;;5096579;28;20024;-88
2021/08/15 02:11:15;;;;;;;12.30;7.50;;;;;;;;;;5096433;28;20032;-90
2021/08/15 02:13:41;;;;;;;15.07;8.30;;;;;;;;;;5096213;28;20028;-88
2021/08/15 02:16:07;;;;;;;11.63;7.35;;;;;;;;;;5097987;28;20107;-89
2021/08/15 02:18:33;;;;;;;12.90;8.10;;;;;;;;;;5096503;28;20111;-89
2021/08/15 02:21:00;;;;;;;13.68;8.23;;;;;;;;;;5096469;28;20030;-89
2021/08/15 02:23:26;;;;;;;18.17;7.75;;;;;;;;;;5096341;28;20062;-88
2021/08/15 02:25:53;;;;;;;13.40;8.07;;;;;;;;;;5096030;28;20028;-89
2021/08/15 02:28:19;;;;;;;15.57;8.70;;;;;;;;;;5096305;28;20408;-88
2021/08/15 02:30:45;;;;;;;13.80;8.40;;;;;;;;;;5096163;28;20034;-90
2021/08/15 02:33:12;;;;;;;16.77;8.57;;;;;;;;;;5097183;28;20392;-89
2021/08/15 02:35:38;;;;;;;11.95;7.85;;;;;;;;;;5095992;28;20043;-89
2021/08/15 02:38:04;;;;;;;13.32;8.73;;;;;;;;;;5096031;28;20020;-88
2021/08/15 02:40:30;;;;;;;13.43;8.07;;;;;;;;;;5097076;28;20068;-89
2021/08/15 02:42:57;;;;;;;12.60;8.07;;;;;;;;;;5096025;28;20119;-86
2021/08/15 02:45:24;;;;;;;11.88;8.25;;;;;;;;;;5097623;28;20067;-88
2021/08/15 02:47:51;;;;;;;13.75;7.68;;;;;;;;;;5097152;28;20384;-89
2021/08/15 02:50:17;;;;;;;12.52;8.73;;;;;;;;;;5095776;28;20103;-89
2021/08/15 02:52:43;;;;;;;13.70;9.15;;;;;;;;;;5095843;28;20124;-88
2021/08/15 02:55:10;;;;;;;12.63;8.27;;;;;;;;;;5097300;28;20042;-88
2021/08/15 02:57:36;;;;;;;12.15;7.78;;;;;;;;;;5097467;28;20028;-88
2021/08/15 03:00:04;;;;;;;14.45;8.30;;;;;;;;;;5096962;28;20055;-88
2021/08/15 03:02:30;;;;;;;13.43;8.15;;;;;;;;;;5095732;28;20054;-90
2021/08/15 03:04:56;;;;;;;17.55;9.07;;;;;;;;;;5095627;28;20024;-89
2021/08/15 03:07:23;;;;;;;15.05;8.10;;;;;;;;;;5095897;28;20032;-88
2021/08/15 03:09:49;;;;;;;11.70;8.10;;;;;;;;;;5095495;28;20020;-89
2021/08/15 03:12:16;;;;;;;12.35;7.68;;;;;;;;;;5095381;28;20079;-90
2021/08/15 03:14:42;;;;;;;12.73;8.30;;;;;;;;;;5096258;28;20096;-88
2021/08/15 03:17:09;;;;;;;13.05;8.10;;;;;;;;;;5096002;28;20487;-89
2021/08/15 03:19:36;;;;;;;13.07;8.60;;;;;;;;;;5096577;28;20028;-90
2021/08/15 03:22:03;;;;;;;12.85;8.43;;;;;;;;;;5095298;28;20020;-88
2021/08/15 03:24:29;;;;;;;12.85;8.48;;;;;;;;;;5096411;28;20396;-89
2021/08/15 03:26:55;;;;;;;12.82;8.25;;;;;;;;;;5095154;28;20469;-88
2021/08/15 03:29:22;;;;;;;12.07;8.30;;;;;;;;;;5095155;28;20118;-88
2021/08/15 03:31:48;;;;;;;14.10;8.70;;;;;;;;;;5096198;28;20020;-89
2021/08/15 03:34:18;;;;;;;11.98;8.70;;;;;;;;;;5094960;28;20067;-88
2021/08/15 03:36:45;;;;;;;18.60;8.80;;;;;;;;;;5095078;28;20024;-90
2021/08/15 03:39:11;;;;;;;14.70;9.25;;;;;;;;;;5095034;28;20024;-88
2021/08/15 03:41:37;;;;;;;13.95;8.05;;;;;;;;;;5094927;28;20032;-89
2021/08/15 03:44:03;;;;;;;12.90;8.88;;;;;;;;;;5094600;28;20035;-89
2021/08/15 03:46:29;;;;;;;13.38;8.60;;;;;;;;;;5094762;28;20028;-87
2021/08/15 03:48:55;;;;;;;14.95;8.88;;;;;;;;;;5094752;28;20027;-88
2021/08/15 03:51:21;;;;;;;13.77;8.52;;;;;;;;;;5094466;28;20484;-87
2021/08/15 03:53:47;;;;;;;12.50;8.50;;;;;;;;;;5095780;28;20073;-88
2021/08/15 03:56:14;;;;;;;15.60;8.15;;;;;;;;;;5094659;28;20043;-89
2021/08/15 03:58:40;;;;;;;12.93;8.93;;;;;;;;;;5094662;28;20198;-88
2021/08/15 04:01:06;;;;;;;15.15;9.15;;;;;;;;;;5094245;28;20046;-89
2021/08/15 04:03:32;;;;;;;13.75;9.02;;;;;;;;;;5094283;28;20150;-89
2021/08/15 04:06:00;;;;;;;13.70;8.00;;;;;;;;;;5094154;28;20020;-89
2021/08/15 04:08:26;;;;;;;12.13;8.00;;;;;;;;;;5094313;28;20384;-88
2021/08/15 04:10:53;;;;;;;13.90;9.05;;;;;;;;;;5096146;28;20027;-89
2021/08/15 04:13:19;;;;;;;14.13;9.15;;;;;;;;;;5094296;28;20522;-89
2021/08/15 04:15:45;;;;;;;16.45;8.23;;;;;;;;;;5095507;28;20077;-90
2021/08/15 04:18:11;;;;;;;12.45;8.18;;;;;;;;;;5094337;28;20024;-89
2021/08/15 04:20:37;;;;;;;12.05;8.52;;;;;;;;;;5095176;28;20075;-87
2021/08/15 04:23:03;;;;;;;15.38;8.13;;;;;;;;;;5093836;28;20097;-89
2021/08/15 04:25:30;;;;;;;14.68;8.32;;;;;;;;;;5093751;28;20081;-90
2021/08/15 04:27:56;;;;;;;11.77;8.35;;;;;;;;;;5092630;28;20126;-91
2021/08/15 04:30:22;;;;;;;14.77;8.43;;;;;;;;;;5093768;28;20032;-90
2021/08/15 04:32:48;;;;;;;18.17;8.80;;;;;;;;;;5093889;28;20028;-89
2021/08/15 04:35:14;;;;;;;18.98;7.88;;;;;;;;;;5094068;28;20055;-90
2021/08/15 04:37:40;;;;;;;14.55;8.13;;;;;;;;;;5094697;28;20024;-90
2021/08/15 04:40:07;;;;;;;14.25;8.00;;;;;;;;;;5093761;28;20020;-91
2021/08/15 04:42:33;;;;;;;13.48;8.45;;;;;;;;;;5093923;28;20028;-89
2021/08/15 04:44:59;;;;;;;11.88;7.30;;;;;;;;;;5093467;28;20048;-89
2021/08/15 04:47:25;;;;;;;11.02;7.47;;;;;;;;;;5093648;28;20400;-89
2021/08/15 04:49:51;;;;;;;11.85;7.50;;;;;;;;;;5093534;28;20078;-89
2021/08/15 04:52:17;;;;;;;17.27;8.13;;;;;;;;;;5093289;28;20039;-88
2021/08/15 04:54:43;;;;;;;12.77;8.15;;;;;;;;;;5093711;28;20476;-90
2021/08/15 04:57:09;;;;;;;16.33;8.38;;;;;;;;;;5093389;28;20031;-89
2021/08/15 04:59:35;;;;;;;14.35;7.68;;;;;;;;;;5094338;28;20028;-90
2021/08/15 05:02:03;;;;;;;11.80;7.63;;;;;;;;;;5094370;28;20157;-90
2021/08/15 05:04:29;;;;;;;14.00;7.05;;;;;;;;;;5093211;28;20515;-87
2021/08/15 05:06:56;;;;;;;13.15;7.35;;;;;;;;;;5094163;28;20384;-86
2021/08/15 05:09:22;;;;;;;10.40;7.03;;;;;;;;;;5092914;28;20027;-88
2021/08/15 05:11:48;;;;;;;9.00;6.40;;;;;;;;;;5094240;28;20031;-91
2021/08/15 05:14:15;;;;;;;9.18;6.07;;;;;;;;;;5094715;28;20114;-91
2021/08/15 05:16:41;;;;;;;10.27;5.13;;;;;;;;;;5089251;28;20035;-83
2021/08/15 05:19:07;;;;;;;8.32;5.15;;;;;;;;;;5106394;28;20025;-92
2021/08/15 05:21:33;;;;;;;9.20;5.68;;;;;;;;;;5073218;28;20120;-91
2021/08/15 05:23:59;;;;;;;13.38;5.68;;;;;;;;;;5088868;28;20020;-88
2021/08/15 05:26:25;;;;;;;10.75;5.43;;;;;;;;;;5093204;28;20024;-86
2021/08/15 05:28:52;;;;;;;9.63;5.30;;;;;;;;;;5093766;28;20039;-93
2021/08/15 05:31:18;;;;;;;8.18;4.80;;;;;;;;;;5092913;28;20020;-83
2021/08/15 05:33:44;;;;;;;10.00;4.55;;;;;;;;;;5092603;28;20081;-86
2021/08/15 05:36:10;;;;;;;9.68;4.65;;;;;;;;;;5092688;28;20078;-92
2021/08/15 05:38:36;;;;;;;13.15;5.10;;;;;;;;;;5092986;28;20028;-95
2021/08/15 05:41:03;;;;;;;10.35;4.80;;;;;;;;;;5092906;28;20028;-94
2021/08/15 05:43:29;;;;;;;9.52;4.85;;;;;;;;;;5093421;28;20036;-94
2021/08/15 05:45:58;;;;;;;10.18;4.40;;;;;;;;;;5093554;28;20032;-92
2021/08/15 05:48:24;;;;;;;9.07;4.45;;;;;;;;;;5096021;28;20021;-95
2021/08/15 05:50:50;;;;;;;7.70;4.82;;;;;;;;;;5096263;28;20024;-95
2021/08/15 05:53:16;;;;;;;8.57;5.10;;;;;;;;;;5093714;28;20024;-94
2021/08/15 05:55:42;;;;;;;11.65;5.43;;;;;;;;;;5094368;28;20080;-94
2021/08/15 05:58:08;;;;;;;11.73;4.97;;;;;;;;;;5093325;28;20107;-94
2021/08/15 06:00:34;;;;;;;8.55;4.90;;;;;;;;;;5093227;28;20481;-94
2021/08/15 06:03:01;;;;;;;13.45;5.25;;;;;;;;;;5093309;28;20031;-95
2021/08/15 06:05:27;;;;;;;8.25;4.40;;;;;;;;;;5093035;28;20028;-93
2021/08/15 06:07:53;;;;;;;9.07;5.30;;;;;;;;;;5093190;28;20032;-93
2021/08/15 06:10:19;;;;;;;9.68;5.10;;;;;;;;;;5092948;28;20025;-92
2021/08/15 06:12:45;;;;;;;7.38;4.93;;;;;;;;;;5093288;28;20034;-90
2021/08/15 06:15:12;;;;;;;8.73;4.57;;;;;;;;;;5092993;28;20032;-93
2021/08/15 06:17:42;;;;;;;8.75;4.22;;;;;;;;;;5093309;28;20028;-92
2021/08/15 06:20:09;;;;;;;7.57;4.97;;;;;;;;;;5093065;28;20024;-91
2021/08/15 06:22:42;;;;;;;7.88;4.70;;;;;;;;;;5092112;28;20020;-89
2021/08/15 06:25:09;;;;;;;8.55;5.00;;;;;;;;;;5094100;28;20028;-87
2021/08/15 06:27:35;;;;;;;6.75;4.40;;;;;;;;;;5092437;28;20024;-88
2021/08/15 06:30:02;;;;;;;6.78;4.65;;;;;;;;;;5093550;28;20499;-89
2021/08/15 06:32:28;;;;;;;9.35;4.82;;;;;;;;;;5091868;28;20107;-90
2021/08/15 06:34:54;;;;;;;10.48;4.30;;;;;;;;;;5091783;28;20488;-90
2021/08/15 06:37:20;;;;;;;8.35;4.75;;;;;;;;;;5090666;28;20500;-86
2021/08/15 06:39:46;;;;;;;7.60;5.38;;;;;;;;;;5091696;28;20369;-89
2021/08/15 06:42:12;;;;;;;10.20;4.88;;;;;;;;;;5091277;28;20085;-88
2021/08/15 06:44:39;;;;;;;12.88;5.18;;;;;;;;;;5091282;28;20040;-84
2021/08/15 06:47:06;;;;;;;6.70;4.68;;;;;;;;;;5090765;28;20028;-88
2021/08/15 06:49:32;;;;;;;8.05;4.70;;;;;;;;;;5090879;28;20473;-87
2021/08/15 06:51:58;;;;;;;10.38;5.00;;;;;;;;;;5092216;28;20047;-87
2021/08/15 06:54:24;;;;;;;8.05;5.32;;;;;;;;;;5094602;28;20473;-90
2021/08/15 06:56:50;;;;;;;8.68;4.97;;;;;;;;;;5096619;28;20035;-89
2021/08/15 06:59:17;;;;;;;8.02;4.60;;;;;;;;;;5094881;28;20040;-89
2021/08/15 07:01:43;;;;;;;5.65;4.20;;;;;;;;;;5095569;28;20075;-87
2021/08/15 07:04:09;;;;;;;7.47;4.93;;;;;;;;;;5096123;28;20079;-88
2021/08/15 07:06:36;;;;;;;12.27;5.93;;;;;;;;;;5095151;28;20024;-88
2021/08/15 07:09:02;;;;;;;7.78;4.90;;;;;;;;;;5094824;28;20028;-91
2021/08/15 07:11:28;;;;;;;7.75;4.88;;;;;;;;;;5095557;28;20028;-89
2021/08/15 07:13:54;;;;;;;6.60;5.00;;;;;;;;;;5096356;28;20086;-91
2021/08/15 07:16:20;;;;;;;12.80;5.35;;;;;;;;;;5095289;28;20031;-93
2021/08/15 07:18:46;;;;;;;6.35;4.43;;;;;;;;;;5095773;28;20028;-90
2021/08/15 07:21:12;;;;;;;8.68;5.38;;;;;;;;;;5096728;28;20016;-93
2021/08/15 07:23:38;;;;;;;8.38;4.82;;;;;;;;;;5095731;28;20070;-91
2021/08/15 07:26:04;;;;;;;6.05;4.35;;;;;;;;;;5096788;28;20109;-89
2021/08/15 07:28:31;;;;;;;8.63;4.18;;;;;;;;;;5097189;28;20396;-94
2021/08/15 07:30:57;;;;;;;10.57;4.55;;;;;;;;;;5096083;28;20032;-94
2021/08/15 07:33:23;;;;;;;6.53;4.10;;;;;;;;;;5096491;28;20024;-91
2021/08/15 07:35:49;;;;;;;6.60;4.72;;;;;;;;;;5096653;28;20016;-90
2021/08/15 07:38:16;;;;;;;5.68;4.07;;;;;;;;;;5095482;28;20035;-89
2021/08/15 07:40:42;;;;;;;6.07;4.55;;;;;;;;;;5096401;28;20020;-92
2021/08/15 07:43:08;;;;;;;10.18;4.40;;;;;;;;;;5095302;28;20081;-87
2021/08/15 07:45:34;;;;;;;7.03;4.65;;;;;;;;;;5095257;28;20101;-88
2021/08/15 07:48:01;;;;;;;6.72;4.10;;;;;;;;;;5095554;28;20028;-89
2021/08/15 07:50:33;;;;;;;10.57;4.18;;;;;;;;;;5095122;28;20035;-92
2021/08/15 07:52:59;;;;;;;8.02;4.70;;;;;;;;;;5095482;28;20024;-90
2021/08/15 07:55:26;;;;;;;8.52;4.35;;;;;;;;;;5095214;28;20481;-91
2021/08/15 07:57:52;;;;;;;7.80;4.70;;;;;;;;;;5094859;28;20381;-92
2021/08/15 08:00:18;;;;;;;5.80;4.07;;;;;;;;;;5095184;28;20035;-95
2021/08/15 08:02:44;;;;;;;5.68;4.20;;;;;;;;;;5095181;28;20028;-95
2021/08/15 08:05:10;;;;;;;9.15;4.43;;;;;;;;;;5094966;28;20042;-94
2021/08/15 08:07:36;;;;;;;9.57;4.60;;;;;;;;;;5094729;28;20024;-95
2021/08/15 08:10:03;;;;;;;9.77;4.43;;;;;;;;;;5094460;28;20481;-93
2021/08/15 08:12:29;;;;;;;6.40;4.03;;;;;;;;;;5094963;28;20035;-93
2021/08/15 08:14:55;;;;;;;14.18;4.30;;;;;;;;;;5095535;28;20024;-92
2021/08/15 08:17:21;;;;;;;6.65;3.47;;;;;;;;;;5094684;28;20112;-91
2021/08/15 08:19:47;;;;;;;5.95;3.70;;;;;;;;;;5095606;28;20050;-91
2021/08/15 08:22:15;;;;;;;5.15;3.80;;;;;;;;;;5094909;28;20114;-93
2021/08/15 08:24:41;;;;;;;5.60;3.83;;;;;;;;;;5094459;28;20067;-95
2021/08/15 08:27:07;;;;;;;6.55;3.75;;;;;;;;;;5094942;28;20081;-94
2021/08/15 08:29:33;;;;;;;6.28;4.38;;;;;;;;;;5094339;28;20058;-92
2021/08/15 08:32:00;;;;;;;7.88;4.20;;;;;;;;;;5093833;28;20032;-93
2021/08/15 08:34:26;;;;;;;7.22;4.18;;;;;;;;;;5094409;28;20073;-93
2021/08/15 08:36:52;;;;;;;6.65;3.97;;;;;;;;;;5094731;28;20016;-92
2021/08/15 08:39:18;;;;;;;5.45;3.92;;;;;;;;;;5094550;28;20039;-90
2021/08/15 08:41:45;;;;;;;6.47;3.45;;;;;;;;;;5094552;28;20016;-94
2021/08/15 08:44:11;;;;;;;9.40;4.18;;;;;;;;;;5093698;28;20139;-94
2021/08/15 08:46:38;;;;;;;5.72;3.90;;;;;;;;;;5095129;28;20456;-91
2021/08/15 08:49:04;;;;;;;4.78;3.65;;;;;;;;;;5093789;28;20026;-92
2021/08/15 08:51:31;;;;;;;6.97;4.00;;;;;;;;;;5093959;28;20028;-93
2021/08/15 08:53:57;;;;;;;5.07;3.72;;;;;;;;;;5094449;28;20507;-90
2021/08/15 08:56:24;;;;;;;4.63;3.45;;;;;;;;;;5093697;28;20028;-94
2021/08/15 08:58:51;;;;;;;6.70;3.50;;;;;;;;;;5094473;28;20091;-91
2021/08/15 09:01:17;;;;;;;5.60;3.13;;;;;;;;;;5098170;28;20035;-95
2021/08/15 09:03:44;;;;;;;5.40;3.25;;;;;;;;;;5094150;28;20032;-94
2021/08/15 09:06:23;;;;;;;6.32;3.58;;;;;;;;;;5094524;28;20381;-92
2021/08/15 09:08:52;;;;;;;7.05;3.85;;;;;;;;;;5094251;28;20054;-92
2021/08/15 09:11:20;;;;;;;8.50;3.40;;;;;;;;;;5093806;28;20052;-95
2021/08/15 09:13:59;;;;;;;6.82;3.40;;;;;;;;;;5093865;28;20031;-93
2021/08/15 09:16:25;;;;;;;5.40;3.50;;;;;;;;;;5093969;28;20465;-95
2021/08/15 09:18:51;;;;;;;5.32;3.78;;;;;;;;;;5094533;28;20212;-93
2021/08/15 09:21:29;;;;;;;4.72;3.35;;;;;;;;;;5094662;28;20035;-92
2021/08/15 09:24:04;;;;;;;4.80;2.92;;;;;;;;;;5094724;28;20024;-92
2021/08/15 09:26:30;;;;;;;5.78;3.42;;;;;;;;;;5094340;28;20043;-92
2021/08/15 09:28:56;;;;;;;4.35;3.08;;;;;;;;;;5093489;28;20052;-92
2021/08/15 09:31:24;;;;;;;10.95;3.28;;;;;;;;;;5095045;28;20028;-93
2021/08/15 09:34:00;;;;;;;7.35;3.65;;;;;;;;;;5093446;28;20484;-91
2021/08/15 09:36:31;;;;;;;4.97;3.40;;;;;;;;;;5093583;28;20029;-91
2021/08/15 09:38:57;;;;;;;;;;;;;;;;;;5093578;28;20047;-90
2021/08/15 09:41:25;;;;;;;4.88;3.30;;;;;;;;;;5093147;28;20352;-91
2021/08/15 09:44:11;;;;;;;6.10;3.53;;;;;;;;;;5095941;28;20056;-89
2021/08/15 09:46:55;;;;;;;4.90;2.97;;;;;;;;;;5094090;28;20051;-92
2021/08/15 09:49:21;;;;;;;6.00;3.53;;;;;;;;;;5093427;28;20073;-94
2021/08/15 09:51:48;;;;;;;6.25;3.25;;;;;;;;;;5094180;28;20023;-92
2021/08/15 09:54:19;;;;;;;7.00;3.45;;;;;;;;;;5094209;28;20024;-93
2021/08/15 09:56:45;;;;;;;;;;;;;;;;;;5094057;28;20058;-96
2021/08/15 09:59:13;;;;;;;4.43;3.20;;;;;;;;;;5093930;28;19904;-90
2021/08/15 10:01:41;;;;;;;5.70;3.20;;;;;;;;;;5094094;28;20024;-93
2021/08/15 10:04:07;;;;;;;6.57;3.08;;;;;;;;;;5093752;28;20469;-93
2021/08/15 10:06:36;;;;;;;6.05;3.10;;;;;;;;;;5093536;28;20107;-94
2021/08/15 10:09:04;;;;;;;6.72;3.33;;;;;;;;;;5078650;28;20032;-93
2021/08/15 10:11:33;;;;;;;4.25;2.95;;;;;;;;;;5097259;28;20110;-92
2021/08/15 10:14:00;;;;;;;4.75;3.10;;;;;;;;;;5097242;28;20036;-94
2021/08/15 10:16:55;;;;;;;6.18;3.20;;;;;;;;;;5106635;28;20099;-94
2021/08/15 10:19:33;;;;;;;3.92;2.90;;;;;;;;;;5097074;28;20036;-94
2021/08/15 10:21:59;;;;;;;6.18;3.03;;;;;;;;;;5099737;28;20008;-95
2021/08/15 10:24:40;;;;;;;4.57;2.83;;;;;;;;;;5096006;28;20096;-93
2021/08/15 10:27:06;;;;;;;5.20;3.00;;;;;;;;;;5096559;28;20370;-93
2021/08/15 10:29:33;;;;;;;4.78;3.10;;;;;;;;;;5098419;28;20074;-96
2021/08/15 10:32:18;;;;;;;6.25;3.17;;;;;;;;;;5097230;28;20055;-95
2021/08/15 10:34:54;;;;;;;5.65;3.00;;;;;;;;;;5099896;28;20468;-95
2021/08/15 10:37:23;;;;;;;8.52;3.40;;;;;;;;;;5098512;28;20024;-96
2021/08/15 10:39:50;;;;;;;5.00;3.35;;;;;;;;;;5097809;28;20549;-95
2021/08/15 10:42:35;;;;;;;6.70;3.40;;;;;;;;;;5098576;28;20078;-95
2021/08/15 10:45:03;;;;;;;4.70;3.30;;;;;;;;;;5097128;28;20542;-95
2021/08/15 10:47:29;;;;;;;4.68;3.20;;;;;;;;;;5097607;28;20449;-92
2021/08/15 10:49:57;;;;;;;5.38;2.90;;;;;;;;;;5097391;28;20034;-93
2021/08/15 10:52:37;;;;;;;7.00;3.00;;;;;;;;;;5096479;28;20031;-94
2021/08/15 10:55:05;;;;;;;5.37;3.23;;;;;;;;;;5096788;28;20028;-93
2021/08/15 10:57:35;;;;;;;3.92;2.97;;;;;;;;;;5098061;28;20020;-91
2021/08/15 11:00:01;;;;;;;9.80;3.60;;;;;;;;;;5099978;28;20024;-92
2021/08/15 11:02:34;;;;;;;13.30;3.65;;;;;;;;;;5097000;28;20063;-91
2021/08/15 11:05:01;;;;;;;6.40;3.55;;;;;;;;;;5096970;28;20408;-93
2021/08/15 11:07:37;;;;;;;6.55;3.35;;;;;;;;;;5096107;28;20027;-93
2021/08/15 11:10:05;;;;;;;7.75;3.70;;;;;;;;;;5096061;28;20025;-94
2021/08/15 11:12:31;;;;;;;5.72;3.70;;;;;;;;;;5098072;28;20119;-94
2021/08/15 11:15:08;;;;;;;5.18;3.60;;;;;;;;;;5097536;28;20024;-93
2021/08/15 11:17:36;;;;;;;6.47;3.67;;;;;;;;;;5096799;28;20468;-94
2021/08/15 11:20:21;;;;;;;6.55;3.53;;;;;;;;;;5096380;28;20039;-92
2021/08/15 11:22:47;;;;;;;5.88;3.40;;;;;;;;;;5096314;28;20251;-93
2021/08/15 11:25:24;;;;;;;9.68;3.83;;;;;;;;;;5095630;28;20035;-93
2021/08/15 11:27:51;;;;;;;5.93;3.15;;;;;;;;;;5096031;28;20020;-94
2021/08/15 11:30:20;;;;;;;6.07;3.28;;;;;;;;;;5097006;28;20174;-91
2021/08/15 11:32:54;;;;;;;5.30;3.25;;;;;;;;;;5095898;28;20028;-92
2021/08/15 11:35:20;;;;;;;8.38;3.58;;;;;;;;;;5096170;28;20111;-94
2021/08/15 11:37:54;;;;;;;5.53;3.25;;;;;;;;;;5096285;28;20388;-93
2021/08/15 11:40:21;;;;;;;7.95;3.47;;;;;;;;;;5093411;28;20119;-93
2021/08/15 11:43:10;;;;;;;6.10;3.40;;;;;;;;;;5096193;28;20031;-92
2021/08/15 11:45:44;;;;;;;8.48;3.30;;;;;;;;;;5095666;28;20052;-93
2021/08/15 11:48:12;;;;;;;6.70;3.20;;;;;;;;;;5095532;28;20105;-94
2021/08/15 11:50:39;;;;;;;5.13;3.17;;;;;;;;;;5095839;28;20070;-92
2021/08/15 11:53:16;;;;;;;4.90;3.20;;;;;;;;;;5095427;28;20035;-93
2021/08/15 11:55:43;;;;;;;5.35;3.15;;;;;;;;;;5095956;28;20032;-93
2021/08/15 11:58:11;;;;;;;5.63;3.28;;;;;;;;;;5095922;28;20455;-92
2021/08/15 12:00:38;;;;;;;7.82;3.15;;;;;;;;;;5079110;28;20144;-92
2021/08/15 12:03:04;;;;;;;8.02;3.50;;;;;;;;;;5095210;28;20430;-92
2021/08/15 12:05:31;;;;;;;4.50;3.13;;;;;;;;;;5095301;28;20054;-93
2021/08/15 12:08:01;;;;;;;7.32;3.17;;;;;;;;;;5095486;28;20536;-93
2021/08/15 12:10:29;;;;;;;7.40;3.25;;;;;;;;;;5095559;28;20392;-94
2021/08/15 12:13:11;;;;;;;7.07;3.38;;;;;;;;;;5095986;28;20020;-93
2021/08/15 12:15:38;;;;;;;4.88;2.53;;;;;;;;;;5095611;28;20036;-92
2021/08/15 12:18:04;;;;;;;7.97;3.20;;;;;;;;;;5078255;28;20030;-93
2021/08/15 12:20:31;;;;;;;4.65;2.75;;;;;;;;;;5094796;28;20040;-94
2021/08/15 12:23:07;;;;;;;5.47;2.92;;;;;;;;;;5095413;28;20032;-94
2021/08/15 12:25:33;;;;;;;7.13;3.05;;;;;;;;;;5095943;28;20480;-93
2021/08/15 12:28:13;;;;;;;6.70;2.90;;;;;;;;;;5095650;28;20024;-93
2021/08/15 12:30:40;;;;;;;8.70;3.15;;;;;;;;;;5095019;28;20491;-94
2021/08/15 12:33:34;;;;;;;4.97;3.05;;;;;;;;;;5095555;28;20028;-92
2021/08/15 12:36:16;;;;;;;7.30;3.03;;;;;;;;;;5092438;28;20039;-93
2021/08/15 12:38:43;;;;;;;6.53;3.00;;;;;;;;;;5097148;28;20123;-93
2021/08/15 12:41:29;;;;;;;6.45;3.28;;;;;;;;;;5094429;28;20077;-89
2021/08/15 12:44:15;;;;;;;6.57;3.03;;;;;;;;;;5093426;28;20032;-93
2021/08/15 12:46:41;;;;;;;6.55;3.20;;;;;;;;;;5093795;28;20024;-89
2021/08/15 12:49:20;;;;;;;5.70;3.30;;;;;;;;;;5093121;28;20035;-88
2021/08/15 12:51:46;;;;;;;6.80;3.17;;;;;;;;;;5094367;28;20024;-88
2021/08/15 12:54:12;;;;;;;8.40;3.25;;;;;;;;;;5094415;28;20469;-88
2021/08/15 12:56:38;;;;;;;5.35;3.72;;;;;;;;;;5093060;28;20057;-87
2021/08/15 12:59:04;;;;;;;7.80;3.03;;;;;;;;;;5094260;28;20020;-87
2021/08/15 13:01:30;;;;;;;8.48;3.28;;;;;;;;;;5096564;28;20373;-87
2021/08/15 13:03:59;;;;;;;6.15;3.28;;;;;;;;;;5094204;28;20031;-87
2021/08/15 13:06:36;;;;;;;5.50;2.95;;;;;;;;;;5095959;28;20023;-87
2021/08/15 13:09:05;;;;;;;6.05;2.97;;;;;;;;;;5092866;28;20020;-87
2021/08/15 13:11:31;;;;;;;20.48;3.13;;;;;;;;;;5096300;28;20054;-87
2021/08/15 13:13:57;;;;;;;9.80;3.00;;;;;;;;;;5093048;28;20024;-88
2021/08/15 13:16:24;;;;;;;6.88;3.63;;;;;;;;;;5092203;28;20031;-87
2021/08/15 13:18:50;;;;;;;7.50;3.13;;;;;;;;;;5095152;28;20453;-88
2021/08/15 13:21:16;;;;;;;4.95;2.72;;;;;;;;;;5092153;28;20590;-87
2021/08/15 13:23:42;;;;;;;4.53;2.83;;;;;;;;;;5093538;28;20020;-86
2021/08/15 13:26:09;;;;;;;6.72;3.10;;;;;;;;;;5094446;28;20059;-88
2021/08/15 13:28:36;;;;;;;7.82;3.08;;;;;;;;;;5094474;28;20051;-87
2021/08/15 13:31:04;;;;;;;5.53;3.00;;;;;;;;;;5095070;28;20511;-87
2021/08/15 13:33:30;;;;;;;8.70;3.42;;;;;;;;;;5093865;28;20054;-88
2021/08/15 13:35:56;;;;;;;5.55;3.30;;;;;;;;;;5094315;28;20449;-87
2021/08/15 13:38:23;;;;;;;6.00;3.10;;;;;;;;;;5093730;28;20020;-87
2021/08/15 13:40:49;;;;;;;6.20;3.50;;;;;;;;;;5092819;28;20392;-89
2021/08/15 13:43:15;;;;;;;8.70;3.15;;;;;;;;;;5092227;28;20028;-88
2021/08/15 13:45:44;;;;;;;6.78;3.10;;;;;;;;;;5094527;28;20421;-88
2021/08/15 13:48:12;;;;;;;5.25;3.08;;;;;;;;;;5090142;28;20496;-88
2021/08/15 13:50:38;;;;;;;6.82;3.53;;;;;;;;;;5094626;28;20031;-89
2021/08/15 13:53:04;;;;;;;6.20;3.47;;;;;;;;;;5092887;28;20056;-88
2021/08/15 13:55:30;;;;;;;8.48;3.20;;;;;;;;;;5094821;28;20106;-87
2021/08/15 13:57:56;;;;;;;7.22;3.47;;;;;;;;;;5093550;28;20376;-87
2021/08/15 14:00:23;;;;;;;9.88;3.42;;;;;;;;;;5094258;28;20028;-88
2021/08/15 14:02:49;;;;;;;7.40;3.75;;;;;;;;;;5097808;28;20024;-87
2021/08/15 14:05:15;;;;;;;6.93;4.10;;;;;;;;;;5098203;28;20032;-86
2021/08/15 14:07:42;;;;;;;13.13;3.65;;;;;;;;;;5096682;28;20025;-89
2021/08/15 14:10:08;;;;;;;14.85;3.85;;;;;;;;;;5096843;28;20039;-88
2021/08/15 14:12:36;;;;;;;10.30;3.45;;;;;;;;;;5097544;28;20020;-89
2021/08/15 14:15:03;;;;;;;8.32;3.55;;;;;;;;;;5096253;28;20032;-88
2021/08/15 14:17:29;;;;;;;6.10;3.67;;;;;;;;;;5096657;28;20024;-89
2021/08/15 14:19:55;;;;;;;7.82;3.40;;;;;;;;;;5097922;28;20396;-88
2021/08/15 14:22:21;;;;;;;7.82;3.47;;;;;;;;;;5097993;28;20038;-89
2021/08/15 14:24:48;;;;;;;7.63;3.58;;;;;;;;;;5098175;28;20431;-90
2021/08/15 14:27:14;;;;;;;6.85;3.38;;;;;;;;;;5099149;28;20111;-89
2021/08/15 14:29:40;;;;;;;6.15;3.30;;;;;;;;;;5096786;28;20465;-89
2021/08/15 14:32:06;;;;;;;6.40;3.17;;;;;;;;;;5100012;28;20076;-87
2021/08/15 14:34:32;;;;;;;6.70;3.47;;;;;;;;;;5101237;28;20108;-89
2021/08/15 14:36:59;;;;;;;11.25;3.80;;;;;;;;;;5095912;28;20472;-88
2021/08/15 14:39:25;;;;;;;7.45;3.90;;;;;;;;;;5098914;28;20026;-89
2021/08/15 14:41:51;;;;;;;7.50;3.17;;;;;;;;;;5101521;28;20166;-89